• Join FlightAware (Why Join?)
  • Login
  • US Flag 
09:35AM EDT


 

Airport Tracker/Info


-or-


 

Live Flight TrackerFlight Track Log ✈ BAW2649 ✈ 18-Jan-2014 ✈ LATI / TIA - EGKK / LGW

Flight Track Log - Related Links

Times and Time Zones

All times are in EST time to prevent confusion due to time zone crossing. See the BAW2649 flight status page for this flight to view local times or setup timezone preferences in your user account.

Time Position Orientation Groundspeed Altitude Reporting Facility
EST Latitude Longitude Course Direction KTS MPH feet Rate Location/Type
03:44PM 41.4903 19.6093 312° West  Level Estimated
03:45PM 41.5658 19.4978 312° West  Level Estimated
03:46PM 41.6412 19.3860 312° West  Level Estimated
03:47PM 41.7164 19.2739 312° West  Level Estimated
03:48PM 41.7916 19.1616 312° West  Level Estimated
03:49PM 41.8666 19.0490 312° West  Level Estimated
03:50PM 41.9416 18.9361 312° West  Level Estimated
03:51PM 42.0164 18.8230 312° West  Level Estimated
03:52PM 42.0911 18.7097 312° West  Level Estimated
03:53PM 42.1657 18.5960 312° West  Level Estimated
03:54PM 42.2402 18.4821 311° West  Level Estimated
03:55PM 42.3145 18.3679 311° West  Level Estimated
03:56PM 42.3888 18.2535 311° West  Level Estimated
03:57PM 42.4630 18.1388 311° West  Level Estimated
03:58PM 42.5370 18.0238 311° West  Level Estimated
03:59PM 42.6109 17.9085 311° West  Level Estimated
04:00PM 42.6847 17.7929 311° West  Level Estimated
04:01PM 42.7584 17.6771 311° West  Level Estimated
04:02PM 42.8320 17.5610 311° West  Level Estimated
04:03PM 42.8935 17.4636 311° West  Level Estimated
04:04PM 42.9549 17.3661 311° West  Level Estimated
04:05PM 43.0162 17.2683 311° West  Level Estimated
04:06PM 43.0774 17.1703 311° West  Level Estimated
04:07PM 43.1386 17.0721 311° West  Level Estimated
04:08PM 43.1997 16.9737 310° West  Level Estimated
04:09PM 43.2607 16.8752 310° West  Level Estimated
04:10PM 43.3215 16.7764 310° West  Level Estimated
04:11PM 43.3824 16.6775 310° West  Level Estimated
04:12PM 43.4431 16.5783 310° West  Level Estimated
04:13PM 43.5037 16.4790 310° West  Level Estimated
04:14PM 43.5643 16.3794 310° West  Level Estimated
04:15PM 43.6248 16.2796 310° West  Level Estimated
04:16PM 43.6852 16.1797 310° West  Level Estimated
04:17PM 43.7455 16.0795 310° West  Level Estimated
04:18PM 43.8057 15.9791 310° West  Level Estimated
04:19PM 43.8658 15.8786 310° West  Level Estimated
04:20PM 43.9259 15.7778 310° West  Level Estimated
04:21PM 43.9858 15.6769 310° West  Level Estimated
04:22PM 44.0457 15.5757 309° West  Level Estimated
04:23PM 44.1054 15.4743 309° West  Level Estimated
04:24PM 44.1651 15.3727 309° West  Level Estimated
04:25PM 44.2247 15.2709 309° West  Level Estimated
04:26PM 44.2842 15.1689 309° West  Level Estimated
04:27PM 44.3436 15.0667 309° West  Level Estimated
04:28PM 44.4029 14.9643 309° West  Level Estimated
04:29PM 44.4622 14.8617 309° West  Level Estimated
04:30PM 44.5213 14.7589 309° West  Level Estimated
04:31PM 44.5803 14.6558 309° West  Level Estimated
04:32PM 44.6393 14.5526 309° West  Level Estimated
04:33PM 44.6981 14.4492 309° West  Level Estimated
04:34PM 44.7569 14.3455 309° West  Level Estimated
04:35PM 44.8156 14.2416 309° West  Level Estimated
04:36PM 44.8741 14.1375 308° West  Level Estimated
04:37PM 44.9326 14.0332 308° West  Level Estimated
04:38PM 44.9910 13.9287 308° West  Level Estimated
04:39PM 45.0493 13.8240 308° West  Level Estimated
04:40PM 45.1075 13.7191 308° West  Level Estimated
04:41PM 45.1656 13.6139 308° West  Level Estimated
04:42PM 45.2236 13.5085 308° West  Level Estimated
04:43PM 45.2815 13.4030 308° West  Level Estimated
04:44PM 45.3393 13.2971 308° West  Level Estimated
04:45PM 45.3970 13.1911 308° West  Level Estimated
04:46PM 45.4546 13.0849 308° West  Level Estimated
04:47PM 45.5121 12.9785 308° West  Level Estimated
04:48PM 45.5695 12.8718 308° West  Level Estimated
04:49PM 45.6268 12.7649 308° West  Level Estimated
04:50PM 45.6840 12.6578 307° West  Level Estimated
04:51PM 45.7411 12.5505 307° West  Level Estimated
04:52PM 45.7982 12.4430 307° West  Level Estimated
04:53PM 45.8551 12.3352 307° West  Level Estimated
04:54PM 45.9119 12.2272 307° West  Level Estimated
04:55PM 45.9686 12.1190 307° West  Level Estimated
04:56PM 46.0252 12.0106 307° West  Level Estimated
04:57PM 46.0817 11.9020 307° West  Level Estimated
04:58PM 46.1381 11.7931 307° West  Level Estimated
04:59PM 46.1944 11.6840 307° West  Level Estimated
05:00PM 46.2506 11.5747 307° West  Level Estimated
05:01PM 46.3067 11.4651 307° West  Level Estimated
05:02PM 46.3626 11.3554 306° West  Level Estimated
05:03PM 46.4188 11.2448 306° West  Level Estimated
05:04PM 46.4749 11.1339 306° West  Level Estimated
05:05PM 46.5309 11.0229 306° West  Level Estimated
05:06PM 46.5868 10.9116 306° West  Level Estimated
05:07PM 46.6425 10.8001 306° West  Level Estimated
05:08PM 46.6982 10.6883 306° West  Level Estimated
05:09PM 46.7537 10.5763 306° West  Level Estimated
05:10PM 46.8091 10.4641 306° West  Level Estimated
05:11PM 46.8645 10.3517 306° West  Level Estimated
05:12PM 46.9197 10.2390 306° West  Level Estimated
05:13PM 46.9748 10.1261 306° West  Level Estimated
05:14PM 47.0298 10.0129 306° West  Level Estimated
05:15PM 47.0846 9.8996 305° West  Level Estimated
05:16PM 47.1394 9.7859 305° West  Level Estimated
05:17PM 47.1941 9.6721 305° West  Level Estimated
05:18PM 47.2486 9.5580 305° West  Level Estimated
05:19PM 47.3030 9.4437 305° West  Level Estimated
05:20PM 47.3573 9.3292 305° West  Level Estimated
05:21PM 47.4115 9.2144 305° West  Level Estimated
05:22PM 47.4656 9.0994 305° West  Level Estimated
05:23PM 47.5196 8.9841 305° West  Level Estimated
05:24PM 47.5735 8.8686 305° West  Level Estimated
05:25PM 47.6272 8.7529 305° West  Level Estimated
05:26PM 47.6808 8.6369 305° West  Level Estimated
05:27PM 47.7343 8.5207 304° West  Level Estimated
05:28PM 47.7877 8.4043 304° West  Level Estimated
05:29PM 47.8410 8.2876 304° West  Level Estimated
05:30PM 47.8941 8.1706 304° West  Level Estimated
05:31PM 47.9472 8.0535 304° West  Level Estimated
05:32PM 48.0001 7.9360 304° West  Level Estimated
05:33PM 48.0529 7.8184 304° West  Level Estimated
05:34PM 48.1055 7.7005 304° West  Level Estimated
05:35PM 48.1581 7.5824 304° West  Level Estimated
05:36PM 48.2105 7.4640 304° West  Level Estimated
05:37PM 48.2628 7.3454 304° West  Level Estimated
05:38PM 48.3150 7.2265 303° West  Level Estimated
05:39PM 48.3671 7.1074 303° West  Level Estimated
05:40PM 48.4190 6.9881 303° West  Level Estimated
05:41PM 48.4708 6.8685 303° West  Level Estimated
05:42PM 48.5225 6.7487 303° West  Level Estimated
05:43PM 48.5741 6.6286 303° West  Level Estimated
05:44PM 48.6255 6.5083 303° West  Level Estimated
05:45PM 48.6768 6.3877 303° West  Level Estimated
05:46PM 48.7280 6.2669 303° West  Level Estimated
05:46PM 49.4057 3.4757 303° West 1 1 32,000  Level FlightAware UK
05:46PM 49.4410 3.3804 300° West 1 1 32,000  Level FlightAware UK
05:47PM 49.4755 3.2826 299° West 1 1 32,000  Level FlightAware UK
05:48PM 49.5122 3.1927 302° West 1 1 32,000  Level FlightAware UK
05:48PM 49.5420 3.1124 300° West 1 1 32,000  Level FlightAware UK
05:49PM 49.5780 3.0197 301° West 1 1 32,000  Level FlightAware UK
05:49PM 49.6135 2.9259 300° West 1 1 32,000  Level FlightAware UK
05:50PM 49.6488 2.8323 300° West 1 1 32,000  Level FlightAware UK
05:51PM 49.6836 2.7385 300° West 1 1 32,000  Level FlightAware UK
05:51PM 49.6891 2.7229 299° West 416 479 32,000  Level FlightAware UK
05:51PM 49.7188 2.6441 300° West 416 479 32,000  Level FlightAware UK
05:52PM 49.7477 2.5651 300° West 414 476 32,000  Level FlightAware UK
05:52PM 49.7769 2.4866 300° West 412 474 32,000  Level FlightAware UK
05:53PM 49.8070 2.4289 309° West 414 476 32,000  Level FlightAware UK
05:53PM 49.8457 2.3566 310° West 418 481 32,000  Level FlightAware UK
05:54PM 49.8847 2.2852 310° West 418 481 32,000  Level FlightAware UK
05:54PM 49.9234 2.2137 310° West 414 476 32,000  Level FlightAware UK
05:55PM 49.9616 2.1418 310° West 416 479 32,000  Level FlightAware UK
05:55PM 50.0066 2.0561 309° West 416 479 32,000  Level FlightAware UK
05:56PM 50.0450 1.9842 310° West 414 476 32,000  Level FlightAware UK
05:56PM 50.0909 1.8994 310° West 412 474 32,000  Level FlightAware UK
05:57PM 50.1363 1.8150 310° West 410 472 32,000  Level FlightAware UK
05:57PM 50.1743 1.7433 310° West 414 476 32,000  Level FlightAware UK
05:58PM 50.2121 1.6720 310° West 414 476 32,000  Level FlightAware UK
05:58PM 50.2578 1.5871 310° West 408 470 32,000  Level FlightAware UK
05:59PM 50.3028 1.5025 310° West 408 470 32,000  Level FlightAware UK
06:00PM 50.3409 1.4301 310° West 410 472 32,000  Level FlightAware UK
06:00PM 50.3799 1.3563 310° West 410 472 32,000 -420 Level FlightAware UK
06:01PM 50.4172 1.2850 309° West 398 458 31,600 -1,200 Descending FlightAware UK
06:01PM 50.4593 1.2047 310° West 386 444 30,700 -1,800 Descending FlightAware UK
06:02PM 50.5005 1.1260 309° West 370 426 29,500 -2,040 Descending FlightAware UK
06:02PM 50.5344 1.0613 309° West 358 412 28,500 -2,040 Descending FlightAware UK
06:03PM 50.5674 0.9970 309° West 350 403 27,500 -2,100 Descending FlightAware UK
06:03PM 50.6002 0.9335 309° West 346 398 26,400 -2,220 Descending FlightAware UK
06:04PM 50.6292 0.8684 305° West 346 398 25,300 -2,340 Descending FlightAware UK
06:04PM 50.6487 0.7965 293° West 346 398 24,100 -2,460 Descending FlightAware UK
06:05PM 50.6733 0.7109 294° West 350 403 22,600 -2,280 Descending FlightAware UK
06:05PM 50.6991 0.6242 295° West 348 400 21,400 -2,100 Descending FlightAware UK
06:06PM 50.7201 0.5526 295° West 348 400 20,300 -2,100 Descending FlightAware UK
06:06PM 50.7409 0.4808 295° West 346 398 19,300 -2,040 Descending FlightAware UK
06:07PM 50.7612 0.4099 294° West 338 389 18,300 -2,040 Descending FlightAware UK
06:07PM 50.7850 0.3266 294° West 334 384 17,100 -1,920 Descending FlightAware UK
06:08PM 50.8052 0.2577 295° West 330 380 16,200 -1,800 Descending FlightAware UK
06:08PM 50.8251 0.1897 295° West 324 373 15,300 -1,800 Descending FlightAware UK
06:09PM 50.8442 0.1245 295° West 316 364 14,400 -2,100 Descending FlightAware UK
06:10PM 50.8656 0.0476 294° West 312 359 13,000 -2,400 Descending FlightAware UK
06:10PM 50.8829 -0.0167 293° West 306 352 11,800 -2,280 Descending FlightAware UK
06:11PM 50.9028 -0.0939 292° West 304 350 10,500 -2,160 Descending FlightAware UK
06:11PM 50.9121 -0.1319 291° West 300 345 9,900 -2,040 Descending FlightAware UK
06:11PM 50.9212 -0.1689 291° West 294 338 9,300 -2,040 Descending FlightAware UK
06:12PM 50.9302 -0.2059 291° West 292 336 8,700 -2,220 Descending FlightAware UK
06:12PM 50.9394 -0.2431 291° West 288 331 8,000 -2,520 Descending FlightAware UK
06:12PM 50.9485 -0.2797 292° West 286 329 7,200 -2,520 Descending FlightAware UK
06:12PM 50.9577 -0.3163 292° West 286 329 6,500 -2,220 Descending FlightAware UK
06:13PM 50.9667 -0.3529 291° West 284 327 5,900 -1,680 Descending FlightAware UK
06:13PM 50.9755 -0.3889 291° West 274 315 5,500 -1,020 Descending FlightAware UK
06:13PM 50.9835 -0.4217 291° West 262 302 5,300 -780 Descending FlightAware UK
06:13PM 50.9873 -0.4323 299° West 258 297 5,200 -1,020 Descending FlightAware UK
06:14PM 50.9933 -0.4400 322° Northwest 250 288 5,100 -540 Descending FlightAware UK
06:14PM 50.9998 -0.4471 325° Northwest 244 281 5,100 -780 Level FlightAware UK
06:14PM 51.0178 -0.4652 328° Northwest 232 267 4,800 -840 Descending FlightAware UK
06:14PM 51.0353 -0.4815 330° Northwest 216 249 4,600 -720 Descending FlightAware UK
06:15PM 51.0514 -0.4966 329° Northwest 202 232 4,400 -780 Descending FlightAware UK
06:15PM 51.0569 -0.5012 332° Northwest 198 228 4,300 -540 Descending FlightAware UK
06:15PM 51.0631 -0.5017 357° North 194 223 4,300 -540 Level FlightAware UK
06:15PM 51.0691 -0.5011 North 192 221 4,200 -540 Descending FlightAware UK
06:15PM 51.0748 -0.4980 18° North 190 219 4,200 -540 Level FlightAware UK
06:15PM 51.0797 -0.4934 31° Northeast 190 219 4,100 -540 Descending FlightAware UK
06:15PM 51.0838 -0.4869 45° Northeast 190 219 4,100 -300 Level FlightAware UK
06:15PM 51.0975 -0.4691 39° Northeast 190 219 4,000 -360 Descending FlightAware UK
06:16PM 51.1102 -0.4498 44° Northeast 190 219 3,900 -300 Descending FlightAware UK
06:16PM 51.1120 -0.4413 71° East 188 216 3,900 -720 Level FlightAware UK
06:16PM 51.1157 -0.4251 70° East 188 216 3,700 -1,200 Descending FlightAware UK
06:16PM 51.1195 -0.4002 76° East 188 216 3,300 -1,380 Descending FlightAware UK
06:17PM 51.1228 -0.3746 79° East 188 216 2,900 -1,020 Descending FlightAware UK
06:17PM 51.1259 -0.3501 79° East 180 207 2,700 -840 Descending FlightAware UK
06:17PM 51.1289 -0.3282 77° East 170 196 2,400 -1,020 Descending FlightAware UK
06:18PM 51.1318 -0.3079 77° East 154 177 2,100 -840 Descending FlightAware UK
06:18PM 51.1344 -0.2898 77° East 144 166 1,900 -840 Descending FlightAware UK
06:18PM 51.1367 -0.2718 78° East 146 168 1,600 -840 Descending FlightAware UK
06:18PM 51.1392 -0.2538 78° East 144 166 1,400 -660 Descending FlightAware UK
06:19PM 51.1418 -0.2355 77° East 146 168 1,200 -660 Descending FlightAware UK
06:19PM 51.1445 -0.2172 77° East 146 168 1,000 -900 Descending FlightAware UK
06:19PM 51.1470 -0.1988 78° East 144 166 700 -360 Descending FlightAware UK
06:20PM 51.1486 -0.1866 78° East 100 115 800 180 Climbing FlightAware UK
06:20PM 51.1492 -0.1857 45° Northeast 100 115 800  Level FlightAware UK
06:20PM 51.1498 -0.1844 51° Northeast 100 115 800  Level FlightAware UK
06:21PM 51.1504 -0.1833 52° Northeast 100 115 800  Level FlightAware UK
06:21PM 51.1513 -0.1815 66° East 100 115 800  Level FlightAware UK
06:21PM 51.1512 -0.1809 98° East 100 115 800  Level FlightAware UK
06:21PM 51.1514 -0.1806 54° Northeast 100 115 800  Level FlightAware UK
06:21PM 51.1514 -0.1804 72° East 100 115 800  Level FlightAware UK
06:22PM 51.1520 -0.1808 331° Northwest 100 115 800  Level FlightAware UK
06:22PM 51.1524 -0.1811 344° North 100 115 800  Level FlightAware UK
06:22PM 51.1530 -0.1811 357° North 100 115 800  Level FlightAware UK
06:22PM 51.1537 -0.1814 347° North 100 115 800  Level FlightAware UK
06:23PM 51.1545 -0.1817 346° North 100 115 800  Level FlightAware UK
06:23PM 51.1554 -0.1819 352° North 100 115 800  Level FlightAware UK
06:23PM 51.1556 -0.1818 19° North 100 115 800  Level FlightAware UK
06:23PM 51.1558 -0.1815 41° Northeast 100 115 800  Level FlightAware UK
06:23PM 51.1564 -0.1808 42° Northeast 100 115 800  Level FlightAware UK
06:24PM 51.1568 -0.1802 40° Northeast 100 115 800  Level FlightAware UK
06:24PM 51.1571 -0.1797 42° Northeast 100 115 800  Level FlightAware UK
06:24PM 51.1572 -0.1795 50° Northeast 100 115 800  Level FlightAware UK
06:24PM 51.1577 -0.1788 43° Northeast 100 115 800  Level FlightAware UK